Detall de PIREP

Printer-friendly versionPDF version

[2009/10/31 13:03:00]
Flight IATA:CT2306
Pilot Number:026
Company ICAO:CAT
Aircraft Type:DC85/A
PAX:136
Departing Airport: LIEA
Destination Airport: LIRQ
Alternate Airport:LIRA
Online: VATSIM
Route:MINKA UL5 TALIN UL125 ELB UL12 MAREL
Flight Level:FL260
No Slew and time accel
No pause
Crash detect
Detect pilot in Cockpit between each 30 and 45 minutes
13:03 Zero fuel Weight: 223011 Lbs, Fuel Weight: 26988 Lbs
13:03 VATSIM:LIEA 311150Z VRB03KT 9999 SCT020 21/14 Q1022
13:03 VATSIM:LIRQ 311150Z 04008KT 330V090 9999 SCT070 16/05 Q1024
13:03 VOICE CATALONIAN
13:11 Parking Brakes off
13:18 Take-off
13:18 Take off Weight: 248663 Lbs
13:18 Wind: 038º @ 005 Knots Heading: 023º
13:18 POS N40º 38´ 10´´ E008º 17´ 35´´
13:18 Gear Up: 166 Knots
13:18 Flaps:3 at 166 Knots
13:18 Flaps:2 at 172 Knots
13:20 Flaps:1 at 190 Knots
13:22 Flaps:0 at 206 Knots
13:28 TOC
13:28 Fuel W
eight: 21579 Lb
13:33 Wind:049º@024 Knots Heading: 028º Ground Speed: 429 Knots Altitude 26430 ft
13:40 TOD
13:40 Fuel Weight: 18556 Lb
13:48 Wind:023º@036 Knots Heading: 021º Ground Speed: 358 Knots Altitude 15249 ft
13:59 Flaps:1 at 198 Knots
14:00 Flaps:2 at 215 Knots
14:00 Gear Down: 211 Knots
14:02 Flaps:3 at 182 Knots
14:03 Wind:004º@005 Knots Heading: 049º Ground Speed: 183 Knots Altitude 2467 ft
14:03 Flaps:4 at 165 Knots
14:05 Flaps:5 at 145 Knots
14:05 TouchDown:Rate -628 ft/min Speed: 135 Knots
14:06 VATSIM:LIRQ 311250Z 04005KT 330V100 9999 SCT060 17/05 Q1023
14:06 Land
14:06 Wind:040º@005 Knots
14:06 Heading: 052º
14:06 Flight Duration: 00:48
14:06 Landing Weight: 238570 Lbs
14:06 POS N43º 48´ 44´´ E011º 12´ 27´´
14:11 Parking brakes on
14:11 Block to Block Duration: 01:00
14:11 Final Fuel: 14905 Lbls
14:11 Spent Fuel: 12083 Lbls
14:11 Fl
ight Length: 249 NM
14:11 TOD Land Length: 119 NM

Exportar CSV

Powered by Drupal - Modified by Danger4k